KOJC/OJC METAR and TAF weather

Enter ICAO airport designator
Station Type Date Time Source
KOJC METAR 2019/04/21 21:53 UTC NOAA

KOJC 212153Z 18023G38KT 10SM CLR 27/08 A2978 RMK AO2 PK WND 19038/2150 SLP074 T02720078


Station Type Date Time Source
KOJC Decoded METAR 2019/04/21 21:53 UTC NOAA

OLATHE JOHNSON CO EXECUTIVE, KS, United States (KOJC) 38-50N 94-44W 326M
Apr 21, 2019 - 05:53 PM EDT / 2019.04.21 2153 UTC
Wind: from the S (180 degrees) at 26 MPH (23 KT) gusting to 44 MPH (38 KT):0
Visibility: 10 mile(s):0
Sky conditions: clear
Temperature: 81.0 F (27.2 C)
Dew Point: 46.0 F (7.8 C)
Relative Humidity: 29%
Pressure (altimeter): 29.78 in. Hg (1008 hPa)
ob: KOJC 212153Z 18023G38KT 10SM CLR 27/08 A2978 RMK AO2 PK WND 19038/2150 SLP074 T02720078
cycle: 22

Station Type Date Time Source
KOJC TAF UTC NOAA

Error!

Example: see airport list